createdAt,value
2023-03-29T00:01:56.754Z,97899.09
2023-03-29T00:04:30.429Z,97901.33
2023-03-29T00:07:04.033Z,97902.19
2023-03-29T00:09:33.489Z,97906.20
2023-03-29T00:12:01.982Z,97908.92
2023-03-29T00:14:31.122Z,97914.75
2023-03-29T07:21:56.383Z,98216.39
2023-03-29T07:24:34.978Z,98217.05
2023-03-29T07:27:04.713Z,98222.00
2023-03-29T07:29:33.727Z,98226.67
2023-03-29T07:32:02.315Z,98223.52
2023-03-29T07:34:48.581Z,98224.63
2023-03-29T07:37:35.256Z,98229.63
2023-03-29T07:40:09.398Z,98230.91
2023-03-29T07:42:50.774Z,98234.10
2023-03-29T07:45:26.158Z,98237.09
2023-03-29T07:48:14.782Z,98240.68
2023-03-29T07:51:05.444Z,98238.89
2023-03-29T07:53:46.023Z,98242.73
2023-03-29T07:56:39.683Z,98247.74
2023-03-29T07:59:18.212Z,98250.68
2023-03-29T08:01:50.790Z,98246.69
2023-03-29T08:04:41.274Z,98253.60
2023-03-29T08:07:20.127Z,98254.41
2023-03-29T08:10:14.204Z,98253.64
2023-03-29T08:13:05.217Z,98258.84
2023-03-29T08:15:46.416Z,98265.38
2023-03-29T08:18:24.420Z,98264.17
2023-03-29T08:21:02.140Z,98263.66
2023-03-29T08:23:30.715Z,98261.50
2023-03-29T08:26:13.696Z,98277.14
2023-03-29T08:28:42.852Z,98278.58
2023-03-29T08:31:12.051Z,98278.12
2023-03-29T08:33:44.980Z,98286.45
2023-03-29T08:36:47.506Z,98290.62
2023-03-29T08:39:25.301Z,98285.92
2023-03-29T08:42:18.981Z,98286.34
2023-03-29T08:45:03.893Z,98289.13
2023-03-29T08:47:38.297Z,98290.73
2023-03-29T08:50:09.745Z,98289.19
2023-03-29T08:52:51.696Z,98292.30
2023-03-29T08:55:44.129Z,98295.64
2023-03-29T08:58:44.815Z,98297.84
2023-03-29T09:01:17.034Z,98297.52
2023-03-29T09:04:14.975Z,98308.86
2023-03-29T09:07:11.185Z,98310.80
2023-03-29T09:09:46.874Z,98310.05
2023-03-29T09:13:02.954Z,98316.55
2023-03-29T09:15:44.139Z,98309.77
2023-03-29T09:18:27.348Z,98315.36
2023-03-29T09:21:00.695Z,98319.64
2023-03-29T09:23:57.839Z,98311.43
2023-03-29T09:26:56.333Z,98317.25
2023-03-29T09:29:52.656Z,98318.69
2023-03-29T09:32:57.914Z,98324.46
2023-03-29T09:35:58.948Z,98321.85
2023-03-29T09:38:49.581Z,98323.11
2023-03-29T09:41:40.023Z,98324.39
2023-03-29T09:44:29.853Z,98325.55
2023-03-29T09:47:43.841Z,98324.91
2023-03-29T09:50:30.161Z,98319.45
2023-03-29T09:53:24.601Z,98316.88
2023-03-29T09:56:15.960Z,98319.71
2023-03-29T09:59:01.642Z,98312.94
2023-03-29T10:01:44.619Z,98313.87
2023-03-29T10:04:20.285Z,98321.39
2023-03-29T10:06:59.939Z,98326.40
2023-03-29T10:09:36.978Z,98327.38
2023-03-29T10:12:42.942Z,98330.71
2023-03-29T10:15:29.317Z,98331.33
2023-03-29T10:18:27.620Z,98330.30
2023-03-29T10:21:24.066Z,98329.99
2023-03-29T10:24:02.936Z,98327.10
2023-03-29T10:26:33.287Z,98339.23
2023-03-29T10:29:05.019Z,98342.90
2023-03-29T10:31:34.516Z,98349.34
2023-03-29T10:34:09.186Z,98349.13
2023-03-29T10:36:45.222Z,98347.36
2023-03-29T10:39:16.328Z,98347.44
2023-03-29T10:41:50.924Z,98346.34
2023-03-29T10:44:44.483Z,98342.05
2023-03-29T10:47:16.929Z,98340.50
2023-03-29T10:50:08.071Z,98343.55
2023-03-29T10:52:39.462Z,98333.67
2023-03-29T10:55:12.937Z,98341.05
2023-03-29T10:58:02.871Z,98339.27
2023-03-29T11:00:32.827Z,98338.80
2023-03-29T11:03:16.618Z,98340.32
2023-03-29T11:06:30.768Z,98338.98
2023-03-29T11:09:00.025Z,98332.30
2023-03-29T11:11:58.374Z,98329.98
2023-03-29T11:14:42.101Z,98337.52
2023-03-29T11:17:39.060Z,98340.74
2023-03-29T11:20:16.357Z,98336.62
2023-03-29T11:23:17.983Z,98347.08
2023-03-29T11:26:01.672Z,98348.48
2023-03-29T11:28:47.086Z,98358.41
2023-03-29T11:31:37.083Z,98356.19
2023-03-29T11:34:37.954Z,98354.20
2023-03-29T11:37:12.587Z,98351.33
2023-03-29T11:39:59.301Z,98354.84
2023-03-29T11:42:32.285Z,98349.23
2023-03-29T11:45:02.414Z,98349.35
2023-03-29T11:47:37.349Z,98345.75
2023-03-29T11:50:26.624Z,98349.08
2023-03-29T11:53:37.476Z,98346.54
2023-03-29T11:56:57.740Z,98352.09
2023-03-29T12:00:06.425Z,98356.35
2023-03-29T12:03:05.184Z,98355.45
2023-03-29T12:06:24.447Z,98355.41
2023-03-29T12:09:34.286Z,98362.67
2023-03-29T12:12:39.639Z,98355.29
2023-03-29T12:15:23.106Z,98359.16
2023-03-29T12:18:11.615Z,98364.41
2023-03-29T12:20:41.020Z,98371.52
2023-03-29T12:23:13.091Z,98374.16
2023-03-29T12:26:02.685Z,98373.77
2023-03-29T12:29:09.932Z,98380.84
2023-03-29T12:31:49.302Z,98375.63
2023-03-29T12:35:16.759Z,98378.98
2023-03-29T12:38:24.150Z,98376.33
2023-03-29T12:41:22.227Z,98382.77
2023-03-29T12:44:49.225Z,98383.45
2023-03-29T12:47:44.312Z,98390.06
2023-03-29T12:50:52.081Z,98395.01
2023-03-29T12:53:38.837Z,98397.95
2023-03-29T12:56:19.806Z,98398.48
2023-03-29T12:59:07.958Z,98396.64
2023-03-29T13:01:39.128Z,98400.31
2023-03-29T13:05:10.837Z,98397.17
2023-03-29T13:07:47.424Z,98397.64
2023-03-29T13:10:52.648Z,98395.95
2023-03-29T13:13:29.839Z,98394.42
2023-03-29T13:16:18.390Z,98397.33
2023-03-29T13:19:32.108Z,98398.34
2023-03-29T13:22:44.509Z,98397.31
2023-03-29T13:25:56.096Z,98404.75
2023-03-29T13:28:51.264Z,98400.83
2023-03-29T13:31:35.804Z,98405.05
2023-03-29T13:34:43.235Z,98405.31
2023-03-29T13:37:38.219Z,98407.55
2023-03-29T13:40:34.943Z,98407.24
2023-03-29T14:04:54.000Z,98425.80
2023-03-29T14:07:26.438Z,98432.63
2023-03-29T14:09:56.116Z,98435.60
2023-03-29T14:12:34.086Z,98438.07
2023-03-29T14:15:05.192Z,98436.59
2023-03-29T14:17:35.809Z,98435.80
2023-03-29T14:20:09.465Z,98443.80
2023-03-29T14:22:45.709Z,98444.35
2023-03-29T14:25:17.420Z,98452.27
2023-03-29T14:27:45.741Z,98451.65
2023-03-29T14:30:27.602Z,98446.71
2023-03-29T14:33:25.972Z,98448.05
2023-03-29T14:35:55.274Z,98451.77
2023-03-29T14:38:24.653Z,98450.83
2023-03-29T14:40:53.735Z,98450.55
2023-03-29T14:43:24.361Z,98452.20
2023-03-29T14:45:53.074Z,98454.09
2023-03-29T14:48:22.860Z,98452.93
2023-03-29T14:50:51.713Z,98458.02
2023-03-29T14:53:22.915Z,98457.84
2023-03-29T14:55:52.924Z,98460.05
2023-03-29T14:58:32.949Z,98462.90
2023-03-29T15:01:06.297Z,98467.98
2023-03-29T15:03:49.621Z,98474.49
2023-03-29T15:06:18.261Z,98474.46
2023-03-29T15:09:01.471Z,98472.11
2023-03-29T15:11:34.535Z,98475.29
2023-03-29T15:14:14.325Z,98474.64
2023-03-29T15:16:44.031Z,98479.15
2023-03-29T15:19:22.242Z,98481.78
2023-03-29T15:21:51.541Z,98484.14
2023-03-29T15:24:21.978Z,98483.91
2023-03-29T15:27:19.941Z,98483.84
2023-03-29T15:29:48.629Z,98491.48
2023-03-29T15:32:25.286Z,98492.95
2023-03-29T15:35:01.676Z,98500.80
2023-03-29T15:37:31.278Z,98508.83
2023-03-29T15:39:59.845Z,98509.98
2023-03-29T15:42:30.194Z,98514.31
2023-03-29T15:44:58.573Z,98511.20
2023-03-29T15:47:28.174Z,98515.63
2023-03-29T15:49:56.659Z,98520.33
2023-03-29T15:52:25.074Z,98525.89
2023-03-29T15:54:53.398Z,98527.00
2023-03-29T15:57:22.113Z,98529.32
2023-03-29T15:59:50.812Z,98528.89
2023-03-29T16:02:23.652Z,98530.23
2023-03-29T16:04:52.243Z,98532.67
2023-03-29T16:07:21.220Z,98530.37
2023-03-29T16:09:49.518Z,98533.31
2023-03-29T16:12:20.846Z,98535.08
2023-03-29T16:14:49.943Z,98535.55
2023-03-29T16:17:18.728Z,98538.96
2023-03-29T16:19:49.614Z,98541.76
2023-03-29T16:22:18.172Z,98541.80
2023-03-29T16:24:46.738Z,98543.27
2023-03-29T16:27:15.516Z,98542.00
2023-03-29T16:29:44.492Z,98551.96
2023-03-29T16:32:13.346Z,98548.00
2023-03-29T16:34:43.616Z,98552.54
2023-03-29T16:37:13.135Z,98554.42
2023-03-29T16:39:44.635Z,98555.89
2023-03-29T16:42:12.978Z,98559.63
2023-03-29T16:44:41.091Z,98561.80
2023-03-29T16:47:12.806Z,98564.30
2023-03-29T16:49:48.753Z,98568.98
2023-03-29T16:52:17.736Z,98570.52
2023-03-29T16:54:49.052Z,98572.46
2023-03-29T16:57:17.502Z,98574.70
2023-03-29T16:59:47.909Z,98574.66
2023-03-29T17:02:16.505Z,98579.71
2023-03-29T17:04:45.744Z,98582.95
2023-03-29T17:07:14.758Z,98584.77
2023-03-29T17:09:43.581Z,98588.44
2023-03-29T17:12:12.445Z,98589.95
2023-03-29T17:14:42.142Z,98586.70
2023-03-29T17:17:14.306Z,98589.04
2023-03-29T17:19:42.709Z,98590.20
2023-03-29T17:22:11.170Z,98593.73
2023-03-29T17:24:50.146Z,98595.91
2023-03-29T17:27:19.096Z,98601.20
2023-03-29T17:29:47.567Z,98603.90
2023-03-29T17:32:15.940Z,98602.84
2023-03-29T17:34:44.382Z,98604.69
2023-03-29T17:37:13.112Z,98604.69
2023-03-29T17:39:42.293Z,98603.33
2023-03-29T17:42:11.101Z,98605.70
2023-03-29T17:44:41.111Z,98609.13
2023-03-29T17:47:09.801Z,98608.98
2023-03-29T17:49:41.960Z,98611.23
2023-03-29T17:52:10.789Z,98613.79
2023-03-29T17:54:39.235Z,98616.11
2023-03-29T17:57:32.803Z,98618.16
2023-03-29T18:00:27.204Z,98620.80
2023-03-29T18:02:56.525Z,98625.93
2023-03-29T18:06:21.167Z,98626.84
2023-03-29T18:08:49.827Z,98631.45
2023-03-29T18:11:24.943Z,98627.65
2023-03-29T18:13:53.715Z,98632.02
2023-03-29T18:16:25.828Z,98634.20
2023-03-29T18:18:55.989Z,98630.92
2023-03-29T18:21:27.756Z,98639.45
2023-03-29T18:23:57.132Z,98638.52
2023-03-29T18:26:26.138Z,98638.69
2023-03-29T18:29:00.973Z,98637.69
2023-03-29T18:31:33.776Z,98641.59
2023-03-29T18:34:03.473Z,98642.21
2023-03-29T18:36:33.064Z,98645.04
2023-03-29T18:39:06.179Z,98646.31
2023-03-29T18:41:38.108Z,98650.21
2023-03-29T18:44:08.088Z,98649.48
2023-03-29T18:46:36.607Z,98651.60
2023-03-29T18:49:07.816Z,98650.98
2023-03-29T18:51:36.337Z,98652.45
2023-03-29T18:54:05.493Z,98652.26
2023-03-29T18:56:34.315Z,98654.88
2023-03-29T18:59:07.042Z,98655.29
2023-03-29T19:02:03.148Z,98653.83
2023-03-29T19:04:32.138Z,98659.06
2023-03-29T19:07:01.599Z,98661.58
2023-03-29T19:09:57.272Z,98660.08
2023-03-29T19:13:21.369Z,98660.98
2023-03-29T19:15:51.989Z,98661.00
2023-03-29T19:18:25.315Z,98662.73
2023-03-29T19:20:55.277Z,98660.00
2023-03-29T19:23:26.213Z,98659.50
2023-03-29T19:25:54.822Z,98656.98
2023-03-29T19:28:23.584Z,98660.77
2023-03-29T19:30:55.042Z,98657.66
2023-03-29T19:33:24.151Z,98662.95
2023-03-29T19:35:52.868Z,98659.20
2023-03-29T19:38:22.824Z,98657.90
2023-03-29T19:40:51.583Z,98657.44
2023-03-29T19:43:22.245Z,98655.48
2023-03-29T19:45:59.743Z,98657.73
2023-03-29T19:48:28.937Z,98660.80
2023-03-29T19:51:00.643Z,98659.89
2023-03-29T19:53:29.633Z,98661.45
2023-03-29T19:56:02.290Z,98656.56
2023-03-29T19:58:31.659Z,98654.06
2023-03-29T20:01:00.300Z,98656.30
2023-03-29T20:03:30.144Z,98658.66
2023-03-29T20:05:58.838Z,98663.56
2023-03-29T20:08:27.411Z,98667.48
2023-03-29T20:11:04.109Z,98667.46
2023-03-29T20:16:11.680Z,98667.34
2023-03-29T20:19:31.383Z,98669.14
2023-03-29T20:22:26.304Z,98670.38
2023-03-29T20:24:54.554Z,98671.96
2023-03-29T20:27:23.994Z,98672.56
2023-03-29T20:29:55.640Z,98672.86
2023-03-29T20:32:24.365Z,98669.80
2023-03-29T20:34:53.005Z,98666.79
2023-03-29T20:37:23.308Z,98667.35
2023-03-29T20:39:53.328Z,98671.70
2023-03-29T20:42:24.709Z,98668.52
2023-03-29T20:44:55.972Z,98673.06
2023-03-29T20:47:25.964Z,98672.03
2023-03-29T20:49:54.659Z,98671.85
2023-03-29T20:52:23.733Z,98671.92
2023-03-29T20:54:52.426Z,98670.64
2023-03-29T20:57:21.473Z,98667.92
2023-03-29T20:59:51.220Z,98667.78
2023-03-29T21:02:21.588Z,98667.92
2023-03-29T21:04:53.006Z,98668.05
2023-03-29T21:07:21.896Z,98665.80
2023-03-29T21:09:51.014Z,98662.45
2023-03-29T21:12:20.354Z,98663.77
2023-03-29T21:14:48.887Z,98664.95
2023-03-29T21:17:17.841Z,98664.77
2023-03-29T21:19:48.087Z,98663.84
2023-03-29T21:22:17.780Z,98658.77
2023-03-29T21:24:46.767Z,98661.04
2023-03-29T21:27:15.565Z,98657.68
2023-03-29T21:29:49.868Z,98655.33
2023-03-29T21:32:21.627Z,98657.27
2023-03-29T21:34:49.958Z,98654.83
2023-03-29T21:37:46.541Z,98655.34
2023-03-29T21:40:15.949Z,98652.32
2023-03-29T21:42:44.165Z,98650.16
2023-03-29T21:45:15.752Z,98653.23
2023-03-29T21:47:44.440Z,98654.88
2023-03-29T21:50:12.971Z,98653.46
2023-03-29T21:52:42.078Z,98653.30
2023-03-29T21:55:10.727Z,98654.45
2023-03-29T21:57:39.510Z,98656.45
2023-03-29T22:00:12.910Z,98661.41
2023-03-29T22:02:42.634Z,98661.98
2023-03-29T22:05:15.096Z,98662.00
2023-03-29T22:07:50.628Z,98666.67
2023-03-29T22:10:25.875Z,98665.69
2023-03-29T22:13:00.255Z,98665.73
2023-03-29T22:15:35.745Z,98669.15
2023-03-29T22:18:14.048Z,98666.16
2023-03-29T22:20:45.214Z,98665.36
2023-03-29T22:23:15.657Z,98665.05
2023-03-29T22:25:44.205Z,98669.00
2023-03-29T22:28:14.012Z,98667.01
2023-03-29T22:30:43.521Z,98671.81
2023-03-29T22:33:14.018Z,98673.04
2023-03-29T22:35:44.378Z,98670.04
2023-03-29T22:38:16.779Z,98671.62
2023-03-29T22:40:51.062Z,98668.15
2023-03-29T22:48:13.544Z,98676.09
2023-03-29T22:50:46.214Z,98681.00
2023-03-29T22:53:18.065Z,98681.80
2023-03-29T22:55:46.751Z,98680.29
2023-03-29T22:58:20.569Z,98682.39
2023-03-29T23:00:49.464Z,98681.92
2023-03-29T23:03:18.345Z,98680.43
2023-03-29T23:05:52.549Z,98681.27
2023-03-29T23:08:22.287Z,98682.77
2023-03-29T23:10:52.399Z,98684.66
2023-03-29T23:13:29.583Z,98683.27
2023-03-29T23:16:00.327Z,98684.15
2023-03-29T23:18:29.682Z,98682.98
2023-03-29T23:20:59.310Z,98684.35
2023-03-29T23:23:28.432Z,98686.77
2023-03-29T23:26:00.674Z,98690.16
2023-03-29T23:28:31.856Z,98691.47
2023-03-29T23:31:10.756Z,98688.69
2023-03-29T23:33:43.309Z,98688.27
2023-03-29T23:36:16.715Z,98686.48
2023-03-29T23:38:46.974Z,98687.55
2023-03-29T23:41:16.942Z,98695.15
2023-03-29T23:43:50.848Z,98693.86
2023-03-29T23:46:19.118Z,98691.41
2023-03-29T23:48:49.312Z,98694.11
2023-03-29T23:51:18.937Z,98695.49
2023-03-29T23:53:48.054Z,98697.36
2023-03-29T23:56:21.961Z,98697.92
2023-03-29T23:58:56.994Z,98694.62
